createdAt,value
2019-05-03T00:00:49.119Z,0.00
2019-05-03T00:01:49.108Z,0.00
2019-05-03T00:02:49.098Z,0.00
2019-05-03T00:03:49.088Z,0.00
2019-05-03T00:04:49.077Z,0.00
2019-05-03T00:05:49.066Z,0.00
2019-05-03T00:06:49.056Z,0.00
2019-05-03T00:07:49.045Z,0.00
2019-05-03T00:08:49.036Z,0.00
2019-05-03T00:09:49.025Z,0.00
2019-05-03T00:10:49.019Z,0.00
2019-05-03T00:11:49.005Z,0.00
2019-05-03T00:12:48.996Z,0.00
2019-05-03T00:13:48.983Z,0.00
2019-05-03T00:14:48.973Z,0.00
2019-05-03T00:15:48.963Z,0.00
2019-05-03T00:16:48.953Z,0.00
2019-05-03T00:17:48.945Z,0.00
2019-05-03T00:18:48.931Z,0.00
2019-05-03T00:19:48.926Z,0.00
2019-05-03T00:20:48.912Z,0.00
2019-05-03T00:21:48.900Z,0.00
2019-05-03T00:22:48.890Z,0.00
2019-05-03T00:23:48.882Z,0.00
2019-05-03T00:24:48.870Z,0.00
2019-05-03T00:25:48.858Z,0.00
2019-05-03T00:26:48.848Z,0.00
2019-05-03T00:27:48.837Z,0.00
2019-05-03T00:28:48.828Z,0.00
2019-05-03T00:29:48.817Z,0.00
2019-05-03T00:30:48.806Z,0.00
2019-05-03T00:31:48.797Z,0.00
2019-05-03T00:32:48.792Z,0.00
2019-05-03T00:33:48.775Z,0.00
2019-05-03T00:34:48.772Z,0.00
2019-05-03T00:35:48.755Z,0.00
2019-05-03T00:36:48.745Z,0.00
2019-05-03T00:37:48.734Z,0.00
2019-05-03T00:38:48.725Z,0.00
2019-05-03T00:39:48.714Z,0.00
2019-05-03T00:40:48.704Z,0.00
2019-05-03T00:41:49.780Z,0.00
2019-05-03T00:42:48.683Z,0.00
2019-05-03T00:43:48.673Z,0.00
2019-05-03T00:44:48.663Z,0.00
2019-05-03T00:45:48.653Z,0.00
2019-05-03T00:46:48.643Z,0.00
2019-05-03T00:47:48.632Z,0.00
2019-05-03T00:48:48.622Z,0.00
2019-05-03T00:49:48.611Z,0.00
2019-05-03T00:50:48.602Z,0.00
2019-05-03T00:51:48.591Z,0.00
2019-05-03T00:52:48.582Z,0.00
2019-05-03T00:53:48.570Z,0.00
2019-05-03T00:54:48.561Z,0.00
2019-05-03T00:55:48.550Z,0.00
2019-05-03T00:56:48.540Z,0.00
2019-05-03T00:57:48.531Z,0.00
2019-05-03T00:58:48.520Z,0.00
2019-05-03T00:59:48.509Z,0.00
2019-05-03T01:00:48.500Z,0.00
2019-05-03T01:01:48.489Z,0.00
2019-05-03T01:02:48.479Z,0.00
2019-05-03T01:03:48.469Z,0.00
2019-05-03T01:04:48.459Z,0.00
2019-05-03T01:05:48.448Z,0.00
2019-05-03T01:06:48.438Z,0.00
2019-05-03T01:07:48.430Z,0.00
2019-05-03T01:08:48.419Z,0.00
2019-05-03T01:09:48.408Z,0.00
2019-05-03T01:10:48.398Z,0.00
2019-05-03T01:11:48.387Z,0.00
2019-05-03T01:12:48.378Z,0.00
2019-05-03T01:13:48.368Z,0.00
2019-05-03T01:14:48.357Z,0.00
2019-05-03T01:15:48.347Z,0.00
2019-05-03T01:16:48.337Z,0.00
2019-05-03T01:17:48.326Z,0.00
2019-05-03T01:18:48.316Z,0.00
2019-05-03T01:19:48.305Z,0.00
2019-05-03T01:20:48.295Z,0.00
2019-05-03T01:21:48.284Z,0.00
2019-05-03T01:22:48.274Z,0.00
2019-05-03T01:23:48.264Z,0.00
2019-05-03T01:24:48.255Z,0.00
2019-05-03T01:25:48.246Z,0.00
2019-05-03T01:26:48.233Z,0.00
2019-05-03T01:27:48.223Z,0.00
2019-05-03T01:28:48.213Z,0.00
2019-05-03T01:29:48.204Z,0.00
2019-05-03T01:30:48.191Z,0.00
2019-05-03T01:31:48.181Z,0.00
2019-05-03T01:32:48.172Z,0.00
2019-05-03T01:33:48.160Z,0.00
2019-05-03T01:34:48.150Z,0.00
2019-05-03T01:35:48.139Z,0.00
2019-05-03T01:36:48.129Z,0.00
2019-05-03T01:37:48.118Z,0.00
2019-05-03T01:38:48.109Z,0.00
2019-05-03T01:39:48.099Z,0.00
2019-05-03T01:40:48.088Z,0.00
2019-05-03T01:41:48.077Z,0.00
2019-05-03T01:42:48.068Z,0.00
2019-05-03T01:43:48.057Z,0.00
2019-05-03T01:44:48.048Z,0.00
2019-05-03T01:45:48.043Z,0.00
2019-05-03T01:46:48.026Z,0.00
2019-05-03T01:47:48.015Z,0.00
2019-05-03T01:48:48.006Z,0.00
2019-05-03T01:49:48.002Z,0.00
2019-05-03T01:50:47.985Z,0.00
2019-05-03T01:51:47.977Z,0.00
2019-05-03T01:52:47.965Z,0.00
2019-05-03T01:53:47.953Z,0.00
2019-05-03T01:54:47.944Z,0.00
2019-05-03T01:55:47.933Z,0.00
2019-05-03T01:56:56.878Z,0.00
2019-05-03T01:57:47.913Z,0.00
2019-05-03T01:58:47.902Z,0.00
2019-05-03T01:59:47.896Z,0.00
2019-05-03T02:00:47.882Z,0.00
2019-05-03T02:01:47.871Z,0.00
2019-05-03T02:02:47.861Z,0.00
2019-05-03T02:03:47.851Z,0.00
2019-05-03T02:04:47.840Z,0.00
2019-05-03T02:05:47.828Z,0.00
2019-05-03T02:06:47.819Z,0.00
2019-05-03T02:07:48.671Z,0.00
2019-05-03T02:08:47.798Z,0.00
2019-05-03T02:09:47.787Z,0.00
2019-05-03T02:10:47.777Z,0.00
2019-05-03T02:11:47.772Z,0.00
2019-05-03T02:12:47.757Z,0.00
2019-05-03T02:13:47.746Z,0.00
2019-05-03T02:14:47.737Z,0.00
2019-05-03T02:15:47.725Z,0.00
2019-05-03T02:16:47.720Z,0.00
2019-05-03T02:17:47.706Z,0.00
2019-05-03T02:18:47.695Z,0.00
2019-05-03T02:19:47.685Z,0.00
2019-05-03T02:20:47.674Z,0.00
2019-05-03T02:21:47.666Z,0.00
2019-05-03T02:22:47.654Z,0.00
2019-05-03T02:23:47.644Z,0.00
2019-05-03T02:24:47.634Z,0.00
2019-05-03T02:25:55.947Z,0.00
2019-05-03T02:26:47.613Z,0.00
2019-05-03T02:27:47.604Z,0.00
2019-05-03T02:28:47.593Z,0.00
2019-05-03T02:29:47.583Z,0.00
2019-05-03T02:30:47.580Z,0.00
2019-05-03T02:31:47.563Z,0.00
2019-05-03T02:32:47.555Z,0.00
2019-05-03T02:33:47.550Z,0.00
2019-05-03T02:34:47.534Z,0.00
2019-05-03T02:35:47.525Z,0.00
2019-05-03T02:36:47.513Z,0.00
2019-05-03T02:37:47.506Z,0.00
2019-05-03T02:38:47.494Z,0.00
2019-05-03T02:39:47.489Z,0.00
2019-05-03T02:40:47.474Z,0.00
2019-05-03T02:41:49.526Z,0.00
2019-05-03T02:42:47.452Z,0.00
2019-05-03T02:43:47.442Z,0.00
2019-05-03T02:44:47.430Z,0.00
2019-05-03T02:45:47.428Z,0.00
2019-05-03T02:46:47.410Z,0.00
2019-05-03T02:47:47.409Z,0.00
2019-05-03T02:48:47.393Z,0.00
2019-05-03T02:49:47.379Z,0.00
2019-05-03T02:50:47.382Z,0.00
2019-05-03T02:51:47.361Z,0.00
2019-05-03T02:52:47.349Z,0.00
2019-05-03T02:53:47.338Z,0.00
2019-05-03T02:54:47.329Z,0.00
2019-05-03T02:55:47.319Z,0.00
2019-05-03T02:56:47.310Z,0.00
2019-05-03T02:57:47.297Z,0.00
2019-05-03T02:58:47.288Z,0.00
2019-05-03T02:59:49.842Z,0.00
2019-05-03T03:00:47.268Z,0.00
2019-05-03T03:01:47.269Z,0.00
2019-05-03T03:02:47.249Z,0.00
2019-05-03T03:03:47.236Z,0.00
2019-05-03T03:04:47.229Z,0.00
2019-05-03T03:05:47.214Z,0.00
2019-05-03T03:06:47.211Z,0.00
2019-05-03T03:07:47.193Z,0.00
2019-05-03T03:08:47.186Z,0.00
2019-05-03T03:09:47.174Z,0.00
2019-05-03T03:10:47.162Z,0.00
2019-05-03T03:11:47.152Z,0.00
2019-05-03T03:12:47.143Z,0.00
2019-05-03T03:13:47.130Z,0.00
2019-05-03T03:14:47.128Z,0.00
2019-05-03T03:15:47.112Z,0.00
2019-05-03T03:16:47.101Z,0.00
2019-05-03T03:17:47.114Z,0.00
2019-05-03T03:18:47.079Z,0.00
2019-05-03T03:19:47.069Z,0.00
2019-05-03T03:20:47.059Z,0.00
2019-05-03T03:21:47.049Z,0.00
2019-05-03T03:22:47.042Z,0.00
2019-05-03T03:23:47.028Z,0.00
2019-05-03T03:24:47.016Z,0.00
2019-05-03T03:25:47.006Z,0.00
2019-05-03T03:26:47.511Z,0.00
2019-05-03T03:27:46.986Z,0.00
2019-05-03T03:28:46.975Z,0.00
2019-05-03T03:29:46.963Z,0.00
2019-05-03T03:30:48.678Z,0.00
2019-05-03T03:31:48.172Z,0.00
2019-05-03T03:32:48.235Z,0.00
2019-05-03T03:33:47.669Z,0.00
2019-05-03T03:34:54.481Z,4.00
2019-05-03T03:35:49.031Z,4.00
2019-05-03T03:36:58.850Z,4.00
2019-05-03T03:37:46.882Z,4.00
2019-05-03T03:38:46.876Z,4.00
2019-05-03T03:39:46.860Z,0.00
2019-05-03T03:40:46.851Z,4.00
2019-05-03T03:41:46.838Z,4.00
2019-05-03T03:42:46.828Z,4.00
2019-05-03T03:43:46.819Z,8.00
2019-05-03T03:44:46.811Z,8.00
2019-05-03T03:45:46.796Z,12.00
2019-05-03T03:46:46.787Z,12.00
2019-05-03T03:47:46.804Z,12.00
2019-05-03T03:48:46.767Z,16.00
2019-05-03T03:49:46.759Z,16.00
2019-05-03T03:50:46.746Z,16.00
2019-05-03T03:51:46.735Z,16.00
2019-05-03T03:52:46.727Z,24.00
2019-05-03T03:53:46.750Z,24.00
2019-05-03T03:54:46.703Z,24.00
2019-05-03T03:55:46.694Z,28.00
2019-05-03T03:57:47.014Z,28.00
2019-05-03T03:58:46.669Z,32.00
2019-05-03T03:59:46.681Z,32.00
2019-05-03T04:00:46.640Z,44.00
2019-05-03T04:01:46.645Z,64.00
2019-05-03T04:02:46.620Z,64.00
2019-05-03T04:03:46.610Z,64.00
2019-05-03T04:04:46.612Z,64.00
2019-05-03T04:05:46.958Z,64.00
2019-05-03T04:06:46.724Z,64.00
2019-05-03T04:07:46.648Z,56.00
2019-05-03T04:08:46.556Z,72.00
2019-05-03T04:09:46.545Z,76.00
2019-05-03T04:10:46.584Z,76.00
2019-05-03T04:11:46.532Z,92.00
2019-05-03T04:12:46.513Z,96.00
2019-05-03T04:13:46.504Z,124.00
2019-05-03T04:14:46.495Z,112.00
2019-05-03T04:15:46.482Z,128.00
2019-05-03T04:16:46.472Z,160.00
2019-05-03T04:17:46.463Z,232.00
2019-05-03T04:18:46.450Z,272.00
2019-05-03T04:19:46.439Z,296.00
2019-05-03T04:20:46.429Z,300.00
2019-05-03T04:21:46.418Z,320.00
2019-05-03T04:22:46.407Z,344.00
2019-05-03T04:23:46.397Z,340.00
2019-05-03T04:24:46.394Z,388.00
2019-05-03T04:25:46.376Z,400.00
2019-05-03T04:26:46.365Z,388.00
2019-05-03T04:27:46.354Z,428.00
2019-05-03T04:28:46.345Z,452.00
2019-05-03T04:29:46.350Z,520.00
2019-05-03T04:30:46.323Z,540.00
2019-05-03T04:31:46.313Z,540.00
2019-05-03T04:32:46.305Z,596.00
2019-05-03T04:33:46.291Z,608.00
2019-05-03T04:34:46.282Z,556.00
2019-05-03T04:35:46.635Z,540.00
2019-05-03T04:36:46.369Z,612.00
2019-05-03T04:37:46.249Z,660.00
2019-05-03T04:38:46.243Z,768.00
2019-05-03T04:39:46.234Z,788.00
2019-05-03T04:40:46.217Z,836.00
2019-05-03T04:41:46.207Z,748.00
2019-05-03T04:42:46.717Z,752.00
2019-05-03T04:43:46.187Z,736.00
2019-05-03T04:44:46.175Z,808.00
2019-05-03T04:45:46.165Z,856.00
2019-05-03T04:46:46.590Z,912.00
2019-05-03T04:47:46.578Z,888.00
2019-05-03T04:48:46.134Z,940.00
2019-05-03T04:49:46.448Z,988.00
2019-05-03T04:50:46.115Z,1024.00
2019-05-03T04:51:46.698Z,1064.00
2019-05-03T04:52:46.535Z,1048.00
2019-05-03T04:53:46.081Z,1096.00
2019-05-03T04:54:46.073Z,1180.00
2019-05-03T04:55:46.965Z,1216.00
2019-05-03T04:56:46.578Z,1228.00
2019-05-03T04:57:50.196Z,1200.00
2019-05-03T04:58:46.083Z,1176.00
2019-05-03T04:59:46.019Z,1172.00
2019-05-03T05:00:46.676Z,1148.00
2019-05-03T05:01:46.285Z,992.00
2019-05-03T05:02:46.153Z,900.00
2019-05-03T05:03:45.979Z,908.00
2019-05-03T05:04:46.476Z,888.00
2019-05-03T05:05:45.956Z,900.00
2019-05-03T05:06:45.945Z,940.00
2019-05-03T05:07:46.168Z,928.00
2019-05-03T05:08:46.184Z,912.00
2019-05-03T05:09:45.929Z,876.00
2019-05-03T05:10:45.902Z,908.00
2019-05-03T05:11:46.131Z,996.00
2019-05-03T05:12:46.005Z,1068.00
2019-05-03T05:13:45.925Z,956.00
2019-05-03T05:14:46.018Z,880.00
2019-05-03T05:15:46.189Z,1048.00
2019-05-03T05:16:46.600Z,1280.00
2019-05-03T05:17:46.078Z,1592.00
2019-05-03T05:18:45.874Z,1744.00
2019-05-03T05:19:45.809Z,2048.00
2019-05-03T05:20:45.798Z,2124.00
2019-05-03T05:21:45.788Z,2144.00
2019-05-03T05:22:45.776Z,2556.00
2019-05-03T05:23:45.766Z,2828.00
2019-05-03T05:24:45.756Z,2980.00
2019-05-03T05:25:45.745Z,3084.00
2019-05-03T05:26:45.734Z,2896.00
2019-05-03T05:27:49.474Z,2540.00
2019-05-03T05:28:45.715Z,2444.00
2019-05-03T05:29:45.704Z,2548.00
2019-05-03T05:30:45.693Z,2740.00
2019-05-03T05:31:45.683Z,2900.00
2019-05-03T05:32:45.673Z,3004.00
2019-05-03T05:33:45.662Z,2944.00
2019-05-03T05:34:46.061Z,2752.00
2019-05-03T05:35:45.642Z,2624.00
2019-05-03T05:36:45.633Z,2588.00
2019-05-03T05:37:45.628Z,2420.00
2019-05-03T05:38:45.620Z,2212.00
2019-05-03T05:39:45.601Z,2192.00
2019-05-03T05:40:45.591Z,2516.00
2019-05-03T05:41:45.587Z,2816.00
2019-05-03T05:42:45.571Z,2372.00
2019-05-03T05:43:45.561Z,2000.00
2019-05-03T05:44:45.551Z,1824.00
2019-05-03T05:45:45.541Z,1624.00
2019-05-03T05:46:45.531Z,1388.00
2019-05-03T05:47:45.521Z,1220.00
2019-05-03T05:48:45.513Z,1120.00
2019-05-03T05:49:45.500Z,1384.00
2019-05-03T05:50:45.490Z,1644.00
2019-05-03T05:51:45.480Z,1984.00
2019-05-03T05:52:45.470Z,1928.00
2019-05-03T05:53:45.459Z,2080.00
2019-05-03T05:54:45.691Z,1940.00
2019-05-03T05:55:45.440Z,1692.00
2019-05-03T05:56:45.430Z,1924.00
2019-05-03T05:57:45.418Z,1804.00
2019-05-03T05:58:45.411Z,1520.00
2019-05-03T05:59:45.450Z,2068.00
2019-05-03T06:00:45.391Z,2412.00
2019-05-03T06:01:45.731Z,2428.00
2019-05-03T06:02:45.368Z,2308.00
2019-05-03T06:03:45.359Z,2296.00
2019-05-03T06:04:45.351Z,2348.00
2019-05-03T06:05:45.337Z,2400.00
2019-05-03T06:06:45.326Z,2368.00
2019-05-03T06:07:45.317Z,2512.00
2019-05-03T06:08:45.309Z,2592.00
2019-05-03T06:09:45.296Z,2684.00
2019-05-03T06:10:45.286Z,2808.00
2019-05-03T06:11:45.276Z,2580.00
2019-05-03T06:12:45.471Z,2468.00
2019-05-03T06:13:45.256Z,2700.00
2019-05-03T06:14:45.402Z,2776.00
2019-05-03T06:15:45.236Z,2880.00
2019-05-03T06:16:45.271Z,2852.00
2019-05-03T06:17:45.216Z,3124.00
2019-05-03T06:18:45.285Z,3484.00
2019-05-03T06:19:45.197Z,3496.00
2019-05-03T06:20:45.248Z,3696.00
2019-05-03T06:21:47.796Z,4004.00
2019-05-03T06:22:45.165Z,4072.00
2019-05-03T06:23:45.209Z,4044.00
2019-05-03T06:24:45.286Z,4456.00
2019-05-03T06:25:45.399Z,4964.00
2019-05-03T06:26:45.137Z,4440.00
2019-05-03T06:27:45.115Z,4348.00
2019-05-03T06:28:45.433Z,4908.00
2019-05-03T06:29:45.430Z,6128.00
2019-05-03T06:30:45.730Z,5916.00
2019-05-03T06:31:45.078Z,5860.00
2019-05-03T06:32:45.075Z,6000.00
2019-05-03T06:33:45.171Z,5840.00
2019-05-03T06:34:45.544Z,6700.00
2019-05-03T06:35:45.038Z,6956.00
2019-05-03T06:36:45.029Z,6904.00
2019-05-03T06:37:45.893Z,7384.00
2019-05-03T06:38:45.010Z,7148.00
2019-05-03T06:39:45.493Z,7248.00
2019-05-03T06:40:44.995Z,7260.00
2019-05-03T06:41:45.000Z,7252.00
2019-05-03T06:42:52.463Z,7708.00
2019-05-03T06:43:48.529Z,9132.00
2019-05-03T06:44:45.546Z,9964.00
2019-05-03T06:45:46.642Z,10520.00
2019-05-03T06:46:45.740Z,10724.00
2019-05-03T06:47:49.455Z,10504.00
2019-05-03T06:48:44.918Z,10400.00
2019-05-03T06:49:48.397Z,9316.00
2019-05-03T06:50:45.438Z,7856.00
2019-05-03T06:51:49.313Z,7764.00
2019-05-03T06:52:44.882Z,7912.00
2019-05-03T06:53:48.933Z,7592.00
2019-05-03T06:54:45.127Z,6832.00
2019-05-03T06:55:48.364Z,7400.00
2019-05-03T06:56:45.323Z,8892.00
2019-05-03T06:57:49.181Z,9888.00
2019-05-03T06:58:44.982Z,10132.00
2019-05-03T06:59:45.237Z,9160.00
2019-05-03T07:00:45.173Z,7484.00
2019-05-03T07:01:44.873Z,6352.00
2019-05-03T07:02:44.804Z,5244.00
2019-05-03T07:03:44.905Z,6020.00
2019-05-03T07:04:45.022Z,6772.00
2019-05-03T07:05:44.769Z,6632.00
2019-05-03T07:06:45.149Z,6720.00
2019-05-03T07:07:44.752Z,7664.00
2019-05-03T07:08:47.171Z,8152.00
2019-05-03T07:09:44.734Z,8204.00
2019-05-03T07:10:44.770Z,8680.00
2019-05-03T07:11:45.179Z,8716.00
2019-05-03T07:12:45.490Z,8772.00
2019-05-03T07:13:45.028Z,8888.00
2019-05-03T07:14:45.064Z,8656.00
2019-05-03T07:15:45.470Z,7256.00
2019-05-03T07:16:44.673Z,6216.00
2019-05-03T07:17:45.089Z,5908.00
2019-05-03T07:18:45.441Z,5840.00
2019-05-03T07:19:45.906Z,5524.00
2019-05-03T07:20:44.699Z,5028.00
2019-05-03T07:21:44.783Z,4704.00
2019-05-03T07:22:44.621Z,4092.00
2019-05-03T07:23:45.145Z,3492.00
2019-05-03T07:24:45.511Z,3128.00
2019-05-03T07:25:44.872Z,3256.00
2019-05-03T07:26:44.888Z,4636.00
2019-05-03T07:27:45.235Z,6476.00
2019-05-03T07:28:49.397Z,7136.00
2019-05-03T07:29:44.651Z,7396.00
2019-05-03T07:30:45.407Z,8112.00
2019-05-03T07:31:44.769Z,8564.00
2019-05-03T07:32:44.911Z,8328.00
2019-05-03T07:33:44.742Z,6800.00
2019-05-03T07:34:45.324Z,5168.00
2019-05-03T07:35:44.556Z,5052.00
2019-05-03T07:36:44.737Z,6396.00
2019-05-03T07:37:45.131Z,8392.00
2019-05-03T07:38:45.368Z,10448.00
2019-05-03T07:39:45.260Z,11684.00
2019-05-03T07:40:44.620Z,12416.00
2019-05-03T07:41:44.720Z,11632.00
2019-05-03T07:42:44.873Z,10400.00
2019-05-03T07:43:45.082Z,9732.00
2019-05-03T07:44:45.063Z,10508.00
2019-05-03T07:45:44.709Z,10936.00
2019-05-03T07:46:45.173Z,9824.00
2019-05-03T07:47:45.195Z,9112.00
2019-05-03T07:48:45.664Z,10288.00
2019-05-03T07:49:44.834Z,10928.00
2019-05-03T07:50:44.775Z,10432.00
2019-05-03T07:51:44.889Z,8852.00
2019-05-03T07:52:45.113Z,7244.00
2019-05-03T07:53:45.113Z,6612.00
2019-05-03T07:54:45.207Z,7288.00
2019-05-03T07:55:45.681Z,8188.00
2019-05-03T07:56:44.651Z,9400.00
2019-05-03T07:57:45.240Z,10428.00
2019-05-03T07:58:46.202Z,11288.00
2019-05-03T07:59:45.523Z,11560.00
2019-05-03T08:00:44.698Z,11492.00
2019-05-03T08:01:45.571Z,11672.00
2019-05-03T08:02:44.734Z,11880.00
2019-05-03T08:03:45.146Z,11704.00
2019-05-03T08:04:44.521Z,10964.00
2019-05-03T08:05:45.388Z,11948.00
2019-05-03T08:06:44.639Z,14236.00
2019-05-03T08:07:46.171Z,15444.00
2019-05-03T08:08:45.441Z,16544.00
2019-05-03T08:09:45.269Z,14468.00
2019-05-03T08:10:44.974Z,10932.00
2019-05-03T08:11:44.484Z,8608.00
2019-05-03T08:12:45.194Z,10584.00
2019-05-03T08:13:44.665Z,13020.00
2019-05-03T08:14:44.683Z,15408.00
2019-05-03T08:15:45.182Z,14392.00
2019-05-03T08:16:45.627Z,9916.00
2019-05-03T08:17:44.983Z,8764.00
2019-05-03T08:18:45.738Z,8628.00
2019-05-03T08:19:44.739Z,8904.00
2019-05-03T08:20:45.169Z,8672.00
2019-05-03T08:21:45.297Z,7116.00
2019-05-03T08:22:44.819Z,6752.00
2019-05-03T08:23:45.282Z,7580.00
2019-05-03T08:24:44.860Z,8660.00
2019-05-03T08:25:44.631Z,12288.00
2019-05-03T08:26:45.289Z,14568.00
2019-05-03T08:27:44.585Z,9968.00
2019-05-03T08:28:44.514Z,8912.00
2019-05-03T08:29:45.370Z,11424.00
2019-05-03T08:30:44.513Z,13872.00
2019-05-03T08:31:45.446Z,14276.00
2019-05-03T08:32:44.528Z,13412.00
2019-05-03T08:33:44.841Z,15844.00
2019-05-03T08:34:45.271Z,17792.00
2019-05-03T08:35:44.798Z,19392.00
2019-05-03T08:36:45.193Z,16076.00
2019-05-03T08:37:45.280Z,17088.00
2019-05-03T08:38:45.248Z,16640.00
2019-05-03T08:39:44.725Z,17408.00
2019-05-03T08:40:45.548Z,29248.00
2019-05-03T08:41:44.374Z,19424.00
2019-05-03T08:42:44.439Z,24160.00
2019-05-03T08:43:44.637Z,20544.00
2019-05-03T08:44:45.324Z,87808.00
2019-05-03T08:45:44.718Z,22368.00
2019-05-03T08:46:47.217Z,69312.00
2019-05-03T08:47:45.059Z,37728.00
2019-05-03T08:48:45.606Z,43744.00
2019-05-03T08:49:45.016Z,86240.00
2019-05-03T08:50:45.089Z,73952.00
2019-05-03T08:51:44.377Z,46112.00
2019-05-03T08:52:45.236Z,31264.00
2019-05-03T08:53:45.863Z,23008.00
2019-05-03T08:54:44.878Z,23520.00
2019-05-03T08:55:44.964Z,32480.00
2019-05-03T08:56:45.131Z,43360.00
2019-05-03T08:57:44.806Z,21728.00
2019-05-03T08:58:45.132Z,18048.00
2019-05-03T08:59:44.572Z,14472.00
2019-05-03T09:00:45.497Z,13720.00
2019-05-03T09:01:45.428Z,14704.00
2019-05-03T09:02:44.754Z,14792.00
2019-05-03T09:03:45.739Z,15456.00
2019-05-03T09:04:45.924Z,18688.00
2019-05-03T09:05:45.683Z,15444.00
2019-05-03T09:06:44.647Z,16172.00
2019-05-03T09:07:44.732Z,19840.00
2019-05-03T09:08:45.769Z,15972.00
2019-05-03T09:09:45.985Z,12328.00
2019-05-03T09:10:45.968Z,11612.00
2019-05-03T09:11:45.358Z,10436.00
2019-05-03T09:12:44.903Z,11384.00
2019-05-03T09:13:45.014Z,12696.00
2019-05-03T09:14:46.347Z,13420.00
2019-05-03T09:15:44.518Z,15072.00
2019-05-03T09:16:44.771Z,64800.00
2019-05-03T09:17:44.617Z,15812.00
2019-05-03T09:18:45.436Z,15692.00
2019-05-03T09:19:45.311Z,38112.00
2019-05-03T09:20:44.830Z,56032.00
2019-05-03T09:21:45.377Z,26656.00
2019-05-03T09:22:45.308Z,66816.00
2019-05-03T09:23:45.040Z,27520.00
2019-05-03T09:24:45.558Z,19392.00
2019-05-03T09:25:45.689Z,19584.00
2019-05-03T09:26:44.971Z,60672.00
2019-05-03T09:27:44.660Z,17824.00
2019-05-03T09:28:45.433Z,24256.00
2019-05-03T09:29:46.065Z,74144.00
2019-05-03T09:30:44.706Z,20512.00
2019-05-03T09:31:44.709Z,63872.00
2019-05-03T09:32:44.777Z,10360.00
2019-05-03T09:33:45.109Z,5108.00
2019-05-03T09:34:44.480Z,4932.00
2019-05-03T09:35:45.726Z,4716.00
2019-05-03T09:36:44.851Z,4728.00
2019-05-03T09:37:44.949Z,5564.00
2019-05-03T09:38:45.849Z,6216.00
2019-05-03T09:39:44.563Z,7668.00
2019-05-03T09:40:45.436Z,9428.00
2019-05-03T09:41:45.007Z,11132.00
2019-05-03T09:42:44.530Z,11736.00
2019-05-03T09:43:44.992Z,10904.00
2019-05-03T09:44:45.077Z,8256.00
2019-05-03T09:45:45.181Z,7692.00
2019-05-03T09:46:44.664Z,9528.00
2019-05-03T09:47:44.762Z,11968.00
2019-05-03T09:48:45.332Z,13660.00
2019-05-03T09:49:45.405Z,14280.00
2019-05-03T09:50:45.127Z,18976.00
2019-05-03T09:51:44.431Z,16020.00
2019-05-03T09:52:46.892Z,13372.00
2019-05-03T09:53:44.660Z,11620.00
2019-05-03T09:54:45.290Z,11904.00
2019-05-03T09:55:44.845Z,14072.00
2019-05-03T09:56:52.896Z,18912.00
2019-05-03T09:57:44.518Z,20672.00
2019-05-03T09:58:45.963Z,97696.00
2019-05-03T09:59:54.279Z,96576.00
2019-05-03T10:00:44.620Z,109760.00
2019-05-03T10:01:45.690Z,14468.00
2019-05-03T10:02:44.976Z,13488.00
2019-05-03T10:03:45.182Z,14300.00
2019-05-03T10:04:44.649Z,14156.00
2019-05-03T10:05:45.693Z,96192.00
2019-05-03T10:06:45.259Z,20352.00
2019-05-03T10:07:45.533Z,21280.00
2019-05-03T10:08:45.399Z,93376.00
2019-05-03T10:09:44.935Z,90624.00
2019-05-03T10:10:43.608Z,32576.00
2019-05-03T10:11:45.854Z,30400.00
2019-05-03T10:12:43.603Z,48448.00
2019-05-03T10:13:47.394Z,100512.00
2019-05-03T10:14:45.186Z,27456.00
2019-05-03T10:15:45.109Z,28416.00
2019-05-03T10:16:44.907Z,82112.00
2019-05-03T10:17:45.601Z,37856.00
2019-05-03T10:18:45.689Z,116768.00
2019-05-03T10:19:45.152Z,112064.00
2019-05-03T10:20:44.624Z,117280.00
2019-05-03T10:21:44.897Z,31680.00
2019-05-03T10:22:43.585Z,76864.00
2019-05-03T10:23:45.137Z,102976.00
2019-05-03T10:24:45.241Z,26336.00
2019-05-03T10:25:45.472Z,111648.00
2019-05-03T10:26:45.419Z,108640.00
2019-05-03T10:27:45.573Z,73472.00
2019-05-03T10:28:43.591Z,30976.00
2019-05-03T10:29:44.684Z,21344.00
2019-05-03T10:30:45.048Z,23008.00
2019-05-03T10:31:44.933Z,25440.00
2019-05-03T10:32:44.972Z,46368.00
2019-05-03T10:33:45.025Z,71072.00
2019-05-03T10:34:43.587Z,54944.00
2019-05-03T10:35:45.157Z,43744.00
2019-05-03T10:36:43.589Z,47680.00
2019-05-03T10:37:45.364Z,65472.00
2019-05-03T10:38:45.678Z,60480.00
2019-05-03T10:39:45.055Z,64704.00
2019-05-03T10:40:45.278Z,42976.00
2019-05-03T10:41:45.368Z,47648.00
2019-05-03T10:42:44.506Z,24256.00
2019-05-03T10:43:45.131Z,56960.00
2019-05-03T10:44:44.905Z,21248.00
2019-05-03T10:45:44.976Z,19904.00
2019-05-03T10:46:45.255Z,15804.00
2019-05-03T10:47:45.537Z,14308.00
2019-05-03T10:48:45.092Z,12004.00
2019-05-03T10:49:45.675Z,9312.00
2019-05-03T10:50:43.582Z,9728.00
2019-05-03T10:51:45.246Z,12764.00
2019-05-03T10:52:44.711Z,15316.00
2019-05-03T10:53:45.473Z,17664.00
2019-05-03T10:54:43.561Z,16572.00
2019-05-03T10:55:45.076Z,19488.00
2019-05-03T10:56:45.266Z,25600.00
2019-05-03T10:57:44.968Z,22976.00
2019-05-03T10:58:45.257Z,19488.00
2019-05-03T10:59:44.785Z,70272.00
2019-05-03T11:00:50.325Z,19168.00
2019-05-03T11:01:45.226Z,17312.00
2019-05-03T11:02:45.288Z,17600.00
2019-05-03T11:03:45.147Z,58976.00
2019-05-03T11:04:46.071Z,51200.00
2019-05-03T11:05:45.346Z,55776.00
2019-05-03T11:06:45.529Z,28992.00
2019-05-03T11:07:45.161Z,22240.00
2019-05-03T11:08:45.115Z,20128.00
2019-05-03T11:09:49.848Z,20352.00
2019-05-03T11:10:43.503Z,19552.00
2019-05-03T11:11:45.209Z,16544.00
2019-05-03T11:12:43.496Z,13736.00
2019-05-03T11:13:43.497Z,13860.00
2019-05-03T11:14:45.389Z,12788.00
2019-05-03T11:15:44.410Z,11836.00
2019-05-03T11:16:45.774Z,10548.00
2019-05-03T11:17:45.377Z,8764.00
2019-05-03T11:18:45.449Z,8520.00
2019-05-03T11:19:45.272Z,11204.00
2019-05-03T11:20:45.351Z,33184.00
2019-05-03T11:21:45.288Z,59040.00
2019-05-03T11:22:44.921Z,55616.00
2019-05-03T11:23:45.022Z,54240.00
2019-05-03T11:24:45.367Z,54080.00
2019-05-03T11:25:45.204Z,54496.00
2019-05-03T11:26:45.383Z,55936.00
2019-05-03T11:27:44.711Z,56384.00
2019-05-03T11:28:44.879Z,56992.00
2019-05-03T11:29:45.082Z,52768.00
2019-05-03T11:30:53.106Z,59008.00
2019-05-03T11:31:44.541Z,15644.00
2019-05-03T11:32:44.766Z,12272.00
2019-05-03T11:33:43.439Z,9116.00
2019-05-03T11:34:44.952Z,7912.00
2019-05-03T11:35:44.686Z,7668.00
2019-05-03T11:36:45.451Z,7572.00
2019-05-03T11:37:45.342Z,9460.00
2019-05-03T11:38:45.503Z,9792.00
2019-05-03T11:39:45.181Z,10420.00
2019-05-03T11:40:45.530Z,11788.00
2019-05-03T11:41:45.078Z,13744.00
2019-05-03T11:42:44.819Z,46624.00
2019-05-03T11:43:44.353Z,52736.00
2019-05-03T11:44:44.666Z,28832.00
2019-05-03T11:45:44.858Z,18944.00
2019-05-03T11:46:44.522Z,37312.00
2019-05-03T11:47:45.451Z,32512.00
2019-05-03T11:48:45.379Z,43712.00
2019-05-03T11:49:45.199Z,31488.00
2019-05-03T11:50:45.370Z,29440.00
2019-05-03T11:51:44.632Z,21376.00
2019-05-03T11:52:46.823Z,18912.00
2019-05-03T11:53:45.027Z,21824.00
2019-05-03T11:54:45.303Z,25760.00
2019-05-03T11:55:46.261Z,32384.00
2019-05-03T11:56:44.934Z,46592.00
2019-05-03T11:57:45.010Z,18592.00
2019-05-03T11:58:45.532Z,19872.00
2019-05-03T11:59:45.236Z,20384.00
2019-05-03T12:00:45.067Z,17568.00
2019-05-03T12:01:44.891Z,17728.00
2019-05-03T12:02:44.787Z,18560.00
2019-05-03T12:03:45.188Z,16352.00
2019-05-03T12:04:45.215Z,12260.00
2019-05-03T12:05:43.368Z,10404.00
2019-05-03T12:06:45.474Z,9244.00
2019-05-03T12:07:45.332Z,8888.00
2019-05-03T12:08:44.745Z,9020.00
2019-05-03T12:09:45.173Z,9564.00
2019-05-03T12:10:55.381Z,10120.00
2019-05-03T12:11:43.343Z,15188.00
2019-05-03T12:12:44.549Z,41120.00
2019-05-03T12:13:45.453Z,38368.00
2019-05-03T12:14:45.253Z,26720.00
2019-05-03T12:15:44.616Z,24384.00
2019-05-03T12:17:51.894Z,37280.00
2019-05-03T12:18:50.067Z,28768.00
2019-05-03T12:19:46.608Z,21312.00
2019-05-03T12:20:45.991Z,20512.00
2019-05-03T12:21:43.654Z,24032.00
2019-05-03T12:22:44.385Z,19680.00
2019-05-03T12:23:45.685Z,20800.00